createdAt,value
2023-01-15T00:02:34.862Z,23.18
2023-01-15T00:05:20.805Z,23.19
2023-01-15T00:08:07.052Z,23.18
2023-01-15T00:10:52.896Z,23.18
2023-01-15T00:13:39.032Z,23.17
2023-01-15T00:16:25.336Z,23.17
2023-01-15T00:19:12.372Z,23.17
2023-01-15T00:21:58.858Z,23.17
2023-01-15T00:25:03.727Z,23.17
2023-01-15T00:27:49.678Z,23.17
2023-01-15T00:30:39.557Z,23.15
2023-01-15T00:33:25.460Z,23.17
2023-01-15T00:36:11.451Z,23.16
2023-01-15T00:38:57.747Z,23.16
2023-01-15T00:41:43.635Z,23.16
2023-01-15T00:44:29.978Z,23.16
2023-01-15T00:47:16.009Z,23.16
2023-01-15T00:50:02.150Z,23.16
2023-01-15T00:52:48.140Z,23.18
2023-01-15T00:55:34.495Z,23.17
2023-01-15T00:58:20.595Z,23.17
2023-01-15T01:01:06.995Z,23.17
2023-01-15T01:03:53.158Z,23.17
2023-01-15T01:06:39.277Z,23.16
2023-01-15T01:09:25.634Z,23.16
2023-01-15T01:12:11.824Z,23.16
2023-01-15T01:14:58.218Z,23.15
2023-01-15T01:17:44.529Z,23.16
2023-01-15T01:20:30.463Z,23.15
2023-01-15T01:23:16.786Z,23.17
2023-01-15T01:26:03.169Z,23.16
2023-01-15T01:28:52.267Z,23.15
2023-01-15T01:31:38.477Z,23.16
2023-01-15T01:34:24.708Z,23.15
2023-01-15T01:37:10.919Z,23.14
2023-01-15T01:39:57.215Z,23.14
2023-01-15T01:42:43.094Z,23.14
2023-01-15T01:45:32.677Z,23.12
2023-01-15T01:48:19.400Z,23.14
2023-01-15T01:51:06.220Z,23.12
2023-01-15T01:53:52.240Z,23.13
2023-01-15T01:56:38.175Z,23.12
2023-01-15T01:59:24.363Z,23.13
2023-01-15T02:02:10.491Z,23.12
2023-01-15T02:04:57.027Z,23.11
2023-01-15T02:07:43.066Z,23.13
2023-01-15T02:10:29.311Z,23.12
2023-01-15T02:13:25.272Z,23.13
2023-01-15T02:16:31.483Z,23.13
2023-01-15T02:19:29.781Z,23.11
2023-01-15T02:22:21.859Z,23.13
2023-01-15T02:25:20.337Z,23.14
2023-01-15T02:28:29.342Z,23.16
2023-01-15T02:31:34.322Z,23.16
2023-01-15T02:34:27.672Z,23.15
2023-01-15T02:37:15.703Z,23.15
2023-01-15T02:40:02.006Z,23.15
2023-01-15T02:42:48.518Z,23.15
2023-01-15T02:45:35.361Z,23.16
2023-01-15T02:48:22.557Z,23.15
2023-01-15T02:51:15.446Z,23.15
2023-01-15T02:54:01.589Z,23.15
2023-01-15T02:56:47.517Z,23.14
2023-01-15T02:59:34.751Z,23.14
2023-01-15T03:02:21.514Z,23.14
2023-01-15T03:05:12.000Z,23.14
2023-01-15T03:07:59.874Z,23.13
2023-01-15T03:10:45.978Z,23.13
2023-01-15T03:13:32.120Z,23.13
2023-01-15T03:16:38.356Z,23.12
2023-01-15T03:19:26.577Z,23.12
2023-01-15T03:22:24.275Z,23.12
2023-01-15T03:25:12.133Z,23.11
2023-01-15T03:27:58.699Z,23.11
2023-01-15T03:30:44.820Z,23.11
2023-01-15T03:33:30.769Z,23.09
2023-01-15T03:36:18.196Z,23.10
2023-01-15T03:39:04.546Z,23.08
2023-01-15T03:41:50.776Z,23.09
2023-01-15T03:44:36.972Z,23.10
2023-01-15T03:47:42.340Z,23.09
2023-01-15T03:50:37.489Z,23.10
2023-01-15T03:53:38.484Z,23.09
2023-01-15T03:56:33.726Z,23.10
2023-01-15T03:59:22.170Z,23.09
2023-01-15T04:02:09.018Z,23.10
2023-01-15T04:04:55.154Z,23.10
2023-01-15T04:07:41.287Z,23.10
2023-01-15T04:10:27.209Z,23.11
2023-01-15T04:13:13.570Z,23.11
2023-01-15T04:15:59.816Z,23.11
2023-01-15T04:18:45.857Z,23.10
2023-01-15T04:21:31.961Z,23.09
2023-01-15T04:24:17.993Z,23.09
2023-01-15T04:27:04.147Z,23.09
2023-01-15T04:29:50.376Z,23.08
2023-01-15T04:32:36.361Z,23.07
2023-01-15T04:35:22.633Z,23.07
2023-01-15T04:38:08.665Z,23.09
2023-01-15T04:41:13.257Z,23.09
2023-01-15T04:44:08.673Z,23.09
2023-01-15T04:46:54.978Z,23.09
2023-01-15T04:49:41.178Z,23.09
2023-01-15T04:52:27.349Z,23.09
2023-01-15T04:55:13.641Z,23.08
2023-01-15T04:57:59.888Z,23.07
2023-01-15T05:00:45.673Z,23.07
2023-01-15T05:03:32.091Z,23.08
2023-01-15T05:06:18.636Z,23.08
2023-01-15T05:09:04.945Z,23.07
2023-01-15T05:11:51.125Z,23.08
2023-01-15T05:14:37.114Z,23.09
2023-01-15T05:17:23.305Z,23.09
2023-01-15T05:20:10.358Z,23.10
2023-01-15T05:22:56.305Z,23.10
2023-01-15T05:25:42.713Z,23.09
2023-01-15T05:28:28.554Z,23.08
2023-01-15T05:31:15.673Z,23.08
2023-01-15T05:34:01.516Z,23.08
2023-01-15T05:36:47.492Z,23.07
2023-01-15T05:39:33.488Z,23.08
2023-01-15T05:42:19.498Z,23.07
2023-01-15T05:45:05.886Z,23.07
2023-01-15T05:47:53.228Z,23.07
2023-01-15T05:50:39.703Z,23.08
2023-01-15T05:53:25.548Z,23.08
2023-01-15T05:56:11.950Z,23.08
2023-01-15T05:58:57.912Z,23.08
2023-01-15T06:01:43.992Z,23.17
2023-01-15T06:04:29.934Z,23.14
2023-01-15T06:07:18.137Z,23.13
2023-01-15T06:10:04.070Z,23.11
2023-01-15T06:12:50.059Z,23.10
2023-01-15T06:15:36.187Z,23.11
2023-01-15T06:18:23.722Z,23.10
2023-01-15T06:21:10.645Z,23.10
2023-01-15T06:23:56.608Z,23.10
2023-01-15T06:26:42.903Z,23.10
2023-01-15T06:29:29.001Z,23.10
2023-01-15T06:32:14.918Z,23.11
2023-01-15T06:35:01.051Z,23.13
2023-01-15T06:37:48.997Z,23.15
2023-01-15T06:40:34.999Z,23.13
2023-01-15T06:43:39.913Z,23.14
2023-01-15T06:46:44.585Z,23.14
2023-01-15T06:49:30.670Z,23.15
2023-01-15T06:52:16.644Z,23.13
2023-01-15T06:55:02.588Z,23.14
2023-01-15T06:57:49.047Z,23.14
2023-01-15T07:00:35.308Z,23.15
2023-01-15T07:03:21.763Z,23.12
2023-01-15T07:06:11.502Z,23.11
2023-01-15T07:08:57.506Z,23.10
2023-01-15T07:11:49.788Z,23.09
2023-01-15T07:14:36.790Z,23.09
2023-01-15T07:17:22.861Z,23.11
2023-01-15T07:20:09.120Z,23.10
2023-01-15T07:22:54.942Z,23.13
2023-01-15T07:25:41.317Z,23.13
2023-01-15T07:28:27.538Z,23.14
2023-01-15T07:31:13.948Z,23.14
2023-01-15T07:34:00.411Z,23.15
2023-01-15T07:36:46.348Z,23.16
2023-01-15T07:39:32.598Z,23.16
2023-01-15T07:42:37.499Z,23.17
2023-01-15T07:45:42.551Z,23.18
2023-01-15T07:48:47.347Z,23.19
2023-01-15T07:51:33.315Z,23.21
2023-01-15T07:54:19.672Z,23.22
2023-01-15T07:57:05.943Z,23.25
2023-01-15T07:59:51.916Z,23.28
2023-01-15T08:02:38.017Z,23.29
2023-01-15T08:05:24.007Z,23.31
2023-01-15T08:08:16.398Z,23.31
2023-01-15T08:11:21.645Z,23.33
2023-01-15T08:14:27.139Z,23.36
2023-01-15T08:17:13.122Z,23.68
2023-01-15T08:19:59.343Z,23.81
2023-01-15T08:22:45.830Z,23.91
2023-01-15T08:25:31.831Z,23.95
2023-01-15T08:28:17.890Z,23.99
2023-01-15T08:31:05.595Z,24.00
2023-01-15T08:33:51.953Z,23.96
2023-01-15T08:36:38.135Z,23.93
2023-01-15T08:39:24.038Z,24.01
2023-01-15T08:42:11.538Z,24.06
2023-01-15T08:44:58.420Z,24.07
2023-01-15T08:47:44.927Z,24.08
2023-01-15T08:50:31.388Z,24.09
2023-01-15T08:53:19.340Z,24.09
2023-01-15T08:56:08.173Z,24.10
2023-01-15T08:58:54.371Z,24.10
2023-01-15T09:01:41.171Z,24.05
2023-01-15T09:04:27.501Z,24.00
2023-01-15T09:07:13.345Z,24.03
2023-01-15T09:09:59.143Z,24.05
2023-01-15T09:12:45.604Z,24.08
2023-01-15T09:15:32.143Z,24.08
2023-01-15T09:18:19.421Z,24.09
2023-01-15T09:21:06.297Z,24.09
2023-01-15T09:23:52.684Z,24.07
2023-01-15T09:26:39.081Z,24.04
2023-01-15T09:29:25.324Z,24.06
2023-01-15T09:32:11.532Z,24.06
2023-01-15T09:34:57.676Z,24.00
2023-01-15T09:37:44.177Z,23.94
2023-01-15T09:40:37.027Z,23.90
2023-01-15T09:43:49.992Z,23.87
2023-01-15T09:46:39.355Z,23.84
2023-01-15T09:49:41.586Z,23.80
2023-01-15T09:52:42.114Z,23.78
2023-01-15T09:55:32.508Z,23.76
2023-01-15T09:58:20.080Z,23.76
2023-01-15T10:01:06.550Z,23.75
2023-01-15T10:04:01.666Z,23.76
2023-01-15T10:07:07.861Z,23.76
2023-01-15T10:09:57.729Z,23.75
2023-01-15T10:12:44.776Z,23.75
2023-01-15T10:15:38.162Z,23.73
2023-01-15T10:18:24.467Z,23.71
2023-01-15T10:21:31.258Z,23.69
2023-01-15T10:24:28.887Z,23.69
2023-01-15T10:27:25.182Z,23.66
2023-01-15T10:30:16.419Z,23.64
2023-01-15T10:33:03.848Z,23.62
2023-01-15T10:35:54.279Z,23.58
2023-01-15T10:38:43.549Z,23.57
2023-01-15T10:41:37.133Z,23.53
2023-01-15T10:44:26.406Z,23.51
2023-01-15T10:47:13.603Z,23.49
2023-01-15T10:50:00.139Z,23.43
2023-01-15T10:52:58.786Z,23.41
2023-01-15T10:55:48.667Z,23.39
2023-01-15T10:58:40.654Z,23.37
2023-01-15T11:01:26.981Z,23.34
2023-01-15T11:04:16.261Z,23.33
2023-01-15T11:07:03.484Z,23.33
2023-01-15T11:09:49.747Z,23.33
2023-01-15T11:12:54.661Z,23.31
2023-01-15T11:15:59.343Z,23.29
2023-01-15T11:19:04.305Z,23.27
2023-01-15T11:21:50.592Z,23.26
2023-01-15T11:25:08.483Z,23.24
2023-01-15T11:27:54.819Z,23.23
2023-01-15T11:30:41.057Z,23.21
2023-01-15T11:33:28.190Z,23.18
2023-01-15T11:36:21.960Z,23.06
2023-01-15T11:39:22.153Z,22.28
2023-01-15T11:42:32.434Z,21.91
2023-01-15T11:45:37.723Z,22.10
2023-01-15T11:48:42.360Z,22.55
2023-01-15T11:51:28.775Z,22.76
2023-01-15T11:54:15.216Z,22.83
2023-01-15T11:57:01.519Z,22.92
2023-01-15T11:59:48.742Z,22.96
2023-01-15T12:02:42.085Z,22.98
2023-01-15T12:05:35.122Z,23.01
2023-01-15T12:08:33.490Z,23.03
2023-01-15T12:11:26.827Z,23.03
2023-01-15T12:14:25.699Z,23.04
2023-01-15T12:17:17.993Z,23.05
2023-01-15T12:20:22.944Z,23.07
2023-01-15T12:23:27.549Z,23.09
2023-01-15T12:26:17.845Z,23.11
2023-01-15T12:29:21.580Z,23.11
2023-01-15T12:32:13.029Z,23.13
2023-01-15T12:35:02.554Z,23.11
2023-01-15T12:37:55.984Z,23.04
2023-01-15T12:40:49.943Z,23.05
2023-01-15T12:43:54.807Z,23.07
2023-01-15T12:46:41.916Z,23.05
2023-01-15T12:49:40.455Z,23.05
2023-01-15T12:52:27.421Z,23.06
2023-01-15T12:55:19.265Z,23.06
2023-01-15T12:58:05.545Z,23.06
2023-01-15T13:00:51.641Z,23.08
2023-01-15T13:03:46.685Z,23.07
2023-01-15T13:06:33.061Z,23.07
2023-01-15T13:09:38.815Z,23.07
2023-01-15T13:12:31.063Z,23.06
2023-01-15T13:15:17.798Z,23.06
2023-01-15T13:18:14.651Z,23.06
2023-01-15T13:21:00.902Z,23.05
2023-01-15T13:23:49.684Z,23.05
2023-01-15T13:26:54.824Z,23.05
2023-01-15T13:29:47.127Z,23.05
2023-01-15T13:32:33.940Z,23.04
2023-01-15T13:35:30.486Z,23.04
2023-01-15T13:38:17.288Z,23.05
2023-01-15T13:41:05.970Z,23.05
2023-01-15T13:43:55.324Z,23.05
2023-01-15T13:46:41.227Z,23.05
2023-01-15T13:49:29.883Z,23.05
2023-01-15T13:52:42.756Z,23.05
2023-01-15T13:55:36.302Z,23.05
2023-01-15T13:58:25.450Z,23.06
2023-01-15T14:01:17.827Z,23.05
2023-01-15T14:04:08.922Z,23.04
2023-01-15T14:06:55.357Z,23.06
2023-01-15T14:09:41.370Z,23.05
2023-01-15T14:12:46.638Z,23.05
2023-01-15T14:15:51.339Z,23.05
2023-01-15T14:18:42.834Z,23.04
2023-01-15T14:21:29.013Z,23.04
2023-01-15T14:24:15.092Z,23.04
2023-01-15T14:27:19.862Z,23.03
2023-01-15T14:30:10.585Z,23.04
2023-01-15T14:32:56.659Z,23.03
2023-01-15T14:35:44.898Z,23.03
2023-01-15T14:38:33.315Z,23.01
2023-01-15T14:41:26.192Z,23.02
2023-01-15T14:44:12.377Z,23.02
2023-01-15T14:46:58.687Z,23.01
2023-01-15T14:49:49.737Z,23.00
2023-01-15T14:52:35.914Z,23.01
2023-01-15T14:55:21.802Z,23.01
2023-01-15T14:58:11.816Z,22.98
2023-01-15T15:00:59.272Z,23.00
2023-01-15T15:03:51.382Z,22.99
2023-01-15T15:06:39.882Z,22.99
2023-01-15T15:09:27.870Z,23.01
2023-01-15T15:12:32.875Z,23.03
2023-01-15T15:15:25.354Z,23.05
2023-01-15T15:18:11.499Z,23.04
2023-01-15T15:21:05.735Z,23.06
2023-01-15T15:23:52.103Z,23.05
2023-01-15T15:26:38.924Z,23.05
2023-01-15T15:29:25.176Z,23.05
2023-01-15T15:32:20.998Z,23.05
2023-01-15T15:35:17.022Z,23.01
2023-01-15T15:38:14.716Z,23.04
2023-01-15T15:41:01.927Z,23.05
2023-01-15T15:44:11.081Z,23.04
2023-01-15T15:47:15.937Z,23.05
2023-01-15T15:50:02.183Z,23.07
2023-01-15T15:52:49.196Z,23.08
2023-01-15T15:55:42.165Z,23.06
2023-01-15T15:58:32.533Z,23.06
2023-01-15T16:01:18.650Z,23.06
2023-01-15T16:04:04.934Z,23.06
2023-01-15T16:06:51.992Z,23.06
2023-01-15T16:09:40.043Z,23.08
2023-01-15T16:12:26.939Z,23.07
2023-01-15T16:15:16.669Z,23.08
2023-01-15T16:18:02.683Z,23.09
2023-01-15T16:20:48.606Z,23.09
2023-01-15T16:23:34.554Z,23.09
2023-01-15T16:26:22.270Z,23.08
2023-01-15T16:29:21.586Z,23.09
2023-01-15T16:32:13.878Z,23.08
2023-01-15T16:35:07.515Z,23.08
2023-01-15T16:37:56.767Z,23.08
2023-01-15T16:40:44.277Z,23.07
2023-01-15T16:43:30.482Z,23.09
2023-01-15T16:46:17.552Z,23.09
2023-01-15T16:49:23.150Z,23.08
2023-01-15T16:52:29.027Z,23.07
2023-01-15T16:55:41.414Z,23.08
2023-01-15T16:58:39.899Z,23.10
2023-01-15T17:01:31.621Z,23.11
2023-01-15T17:04:23.547Z,23.10
2023-01-15T17:07:28.729Z,23.11
2023-01-15T17:10:21.846Z,23.10
2023-01-15T17:13:15.619Z,23.10
2023-01-15T17:16:13.860Z,23.12
2023-01-15T17:18:59.993Z,23.11
2023-01-15T17:21:47.603Z,23.11
2023-01-15T17:24:33.656Z,23.08
2023-01-15T17:27:20.127Z,23.07
2023-01-15T17:30:06.728Z,23.06
2023-01-15T17:32:52.940Z,23.05
2023-01-15T17:35:41.215Z,23.04
2023-01-15T17:38:27.663Z,23.05
2023-01-15T17:41:13.974Z,23.04
2023-01-15T17:44:00.159Z,23.05
2023-01-15T17:46:46.725Z,23.04
2023-01-15T17:49:32.874Z,23.03
2023-01-15T17:52:19.458Z,23.02
2023-01-15T17:55:24.408Z,23.03
2023-01-15T17:58:32.268Z,23.03
2023-01-15T18:01:38.216Z,23.01
2023-01-15T18:04:50.895Z,23.03
2023-01-15T18:07:39.363Z,23.01
2023-01-15T18:10:25.632Z,22.99
2023-01-15T18:13:12.906Z,23.00
2023-01-15T18:15:59.219Z,23.03
2023-01-15T18:18:45.397Z,23.03
2023-01-15T18:21:31.286Z,23.02
2023-01-15T18:24:21.954Z,23.01
2023-01-15T18:27:07.988Z,23.00
2023-01-15T18:29:53.911Z,23.00
2023-01-15T18:32:40.715Z,22.98
2023-01-15T18:35:26.921Z,22.99
2023-01-15T18:38:12.806Z,23.01
2023-01-15T18:41:05.168Z,23.02
2023-01-15T18:44:10.074Z,23.01
2023-01-15T18:46:57.400Z,23.01
2023-01-15T18:49:44.227Z,23.01
2023-01-15T18:52:49.043Z,22.98
2023-01-15T18:55:34.876Z,22.97
2023-01-15T18:58:21.329Z,22.98
2023-01-15T19:01:07.779Z,22.98
2023-01-15T19:03:54.125Z,22.98
2023-01-15T19:06:40.268Z,22.98
2023-01-15T19:09:26.913Z,23.00
2023-01-15T19:12:15.206Z,22.98
2023-01-15T19:15:20.114Z,22.99
2023-01-15T19:18:24.900Z,22.98
2023-01-15T19:21:12.975Z,23.05
2023-01-15T19:23:59.911Z,23.07
2023-01-15T19:26:46.201Z,23.08
2023-01-15T19:29:32.184Z,23.10
2023-01-15T19:32:18.475Z,23.09
2023-01-15T19:35:04.793Z,23.08
2023-01-15T19:37:50.865Z,23.08
2023-01-15T19:40:40.656Z,23.08
2023-01-15T19:43:45.684Z,23.07
2023-01-15T19:46:50.403Z,23.06
2023-01-15T19:49:55.183Z,23.07
2023-01-15T19:52:41.449Z,23.07
2023-01-15T19:55:28.149Z,23.07
2023-01-15T19:58:14.358Z,23.06
2023-01-15T20:01:00.498Z,23.06
2023-01-15T20:03:46.705Z,23.06
2023-01-15T20:06:32.847Z,23.07
2023-01-15T20:09:19.026Z,23.07
2023-01-15T20:12:24.944Z,23.06
2023-01-15T20:15:11.225Z,23.07
2023-01-15T20:17:57.318Z,23.06
2023-01-15T20:20:43.382Z,23.05
2023-01-15T20:23:29.469Z,23.03
2023-01-15T20:26:15.680Z,23.02
2023-01-15T20:29:01.955Z,23.01
2023-01-15T20:31:48.225Z,23.00
2023-01-15T20:34:38.547Z,22.99
2023-01-15T20:37:24.970Z,22.97
2023-01-15T20:40:11.292Z,22.96
2023-01-15T20:43:16.207Z,22.95
2023-01-15T20:46:13.643Z,22.94
2023-01-15T20:49:18.337Z,22.94
2023-01-15T20:52:04.057Z,22.93
2023-01-15T20:54:50.604Z,22.92
2023-01-15T20:57:37.222Z,22.91
2023-01-15T21:00:23.067Z,22.91
2023-01-15T21:03:09.837Z,22.90
2023-01-15T21:05:56.623Z,22.88
2023-01-15T21:08:44.708Z,22.87
2023-01-15T21:11:30.739Z,22.88
2023-01-15T21:14:16.899Z,22.87
2023-01-15T21:17:02.800Z,22.87
2023-01-15T21:19:49.024Z,22.87
2023-01-15T21:22:34.966Z,22.86
2023-01-15T21:25:21.311Z,22.84
2023-01-15T21:28:07.462Z,22.87
2023-01-15T21:30:53.550Z,22.87
2023-01-15T21:33:40.013Z,22.97
2023-01-15T21:36:26.197Z,23.01
2023-01-15T21:39:12.352Z,23.04
2023-01-15T21:42:17.237Z,23.07
2023-01-15T21:45:04.920Z,23.09
2023-01-15T21:47:51.118Z,23.11
2023-01-15T21:50:37.819Z,23.12
2023-01-15T21:53:23.818Z,23.12
2023-01-15T21:56:09.761Z,23.13
2023-01-15T21:58:55.897Z,23.13
2023-01-15T22:01:42.060Z,23.14
2023-01-15T22:04:28.431Z,23.16
2023-01-15T22:07:15.748Z,23.16
2023-01-15T22:10:02.172Z,23.16
2023-01-15T22:12:48.002Z,23.16
2023-01-15T22:15:34.319Z,23.16
2023-01-15T22:18:20.494Z,23.14
2023-01-15T22:21:06.850Z,23.08
2023-01-15T22:23:52.881Z,23.14
2023-01-15T22:26:38.781Z,23.78
2023-01-15T22:29:25.756Z,24.44
2023-01-15T22:32:13.201Z,24.26
2023-01-15T22:34:59.158Z,23.87
2023-01-15T22:37:45.240Z,23.96
2023-01-15T22:40:31.196Z,23.63
2023-01-15T22:43:17.430Z,23.45
2023-01-15T22:46:13.737Z,23.37
2023-01-15T22:49:00.119Z,23.27
2023-01-15T22:51:46.275Z,23.16
2023-01-15T22:54:32.108Z,23.10
2023-01-15T22:57:18.342Z,23.05
2023-01-15T23:00:05.007Z,23.00
2023-01-15T23:03:05.072Z,22.99
2023-01-15T23:05:51.325Z,22.98
2023-01-15T23:08:37.721Z,22.98
2023-01-15T23:11:23.615Z,22.98
2023-01-15T23:14:10.646Z,22.98
2023-01-15T23:16:57.026Z,22.98
2023-01-15T23:19:43.221Z,22.97
2023-01-15T23:22:29.579Z,22.96
2023-01-15T23:25:15.549Z,22.94
2023-01-15T23:28:01.654Z,22.93
2023-01-15T23:30:48.048Z,22.91
2023-01-15T23:33:33.984Z,22.90
2023-01-15T23:36:19.996Z,22.89
2023-01-15T23:39:06.388Z,22.88
2023-01-15T23:42:10.816Z,22.87
2023-01-15T23:45:15.549Z,22.85
2023-01-15T23:48:01.881Z,22.85
2023-01-15T23:50:47.920Z,22.84
2023-01-15T23:53:33.911Z,22.83
2023-01-15T23:56:20.005Z,22.81
2023-01-15T23:59:05.910Z,22.81
